Kokimaru — JD3560 — position and weather

sailwx.info

Track history (hours):
 
Tides and Currents Weather Stations Pressure Air Temp Water Temp Dewpoint Dewpoint Depression Visibility Wind Speed Wind Dir Waves Ship Positions

Kokimaru

Last reported at 2018-Jul-18 21:22 UTC. Time now 2018-Jul-19 19:21 UTC.
Position N 35°30' E 139°45'.

Length 49 m.

Type: Tanker. MMSI: 431004691.

Date/timePositionNaut miles runAvg speedWind from/ knotsBaromVisibWave heightAir tempDewpointWater temp
2018-Jul-18 21:22N 35°30' E 139°45'3 5.1
2018-Jul-18 20:45N 35°29' E 139°42'0 0.0
2018-Jul-18 20:30N 35°29' E 139°42'0 0.0
2018-Jul-18 19:45N 35°29' E 139°42'0 0.0
2018-Jul-18 19:27N 35°29' E 139°42'0 0.0
2018-Jul-18 09:15N 35°29' E 139°42'0 0.0
2018-Jul-18 08:51N 35°29' E 139°42'0 0.0
2018-Jul-18 07:51N 35°29' E 139°42'0 0.0
2018-Jul-18 07:30N 35°29' E 139°42'0 0.0
2018-Jul-18 07:00N 35°29' E 139°42'0 0.0
2018-Jul-18 05:02N 35°29' E 139°42'0 2.0
2018-Jul-18 05:00N 35°29' E 139°42'3 1.1
2018-Jul-18 02:28N 35°30' E 139°45'0 0.0
2018-Jul-17 21:17N 35°30' E 139°44'3 4.7
2018-Jul-17 20:44N 35°29' E 139°42'0 0.0
2018-Jul-17 18:29N 35°29' E 139°42'0 0.0
2018-Jul-17 17:59N 35°29' E 139°42'0 0.0
2018-Jul-17 17:23N 35°29' E 139°42'0 0.0
2018-Jul-17 16:17N 35°29' E 139°42'0 0.0
2018-Jul-17 15:47N 35°29' E 139°42'0 0.0
2018-Jul-17 15:23N 35°29' E 139°42'0 0.0
2018-Jul-17 14:50N 35°29' E 139°42'0 0.0
2018-Jul-17 13:41N 35°29' E 139°42'0 0.0
2018-Jul-17 13:14N 35°29' E 139°42'0 0.0
2018-Jul-17 12:50N 35°29' E 139°42'0 0.0
2018-Jul-17 11:17N 35°29' E 139°42'0 0.0
2018-Jul-17 10:56N 35°29' E 139°42'0 0.0
2018-Jul-17 10:26N 35°29' E 139°42'0 0.0
2018-Jul-17 09:23N 35°29' E 139°42'0 0.0
2018-Jul-17 08:59N 35°29' E 139°42'0 0.0
2018-Jul-17 08:26N 35°29' E 139°42'0 0.0
2018-Jul-17 07:50N 35°29' E 139°42'0 0.0
2018-Jul-17 07:20N 35°29' E 139°42'0 0.0
2018-Jul-17 06:56N 35°29' E 139°42'0 0.0
2018-Jul-17 06:29N 35°29' E 139°42'0 0.0
2018-Jul-17 04:56N 35°29' E 139°42'0 0.0
2018-Jul-17 03:50N 35°29' E 139°42'0 0.0
2018-Jul-17 03:29N 35°29' E 139°42'4 5.9
2018-Jul-17 02:49N 35°31' E 139°46'0 0.1
2018-Jul-16 23:21N 35°31' E 139°46'2 4.5
2018-Jul-16 22:54N 35°30' E 139°44'2 3.6
2018-Jul-16 22:20N 35°29' E 139°42'0 0.0
2018-Jul-16 12:44N 35°29' E 139°42'  
2018-Jul-14 07:27N 35°29' E 139°42'2 0.3
2018-Jul-14 00:20N 35°30' E 139°44'2 2.1
2018-Jul-13 23:10N 35°29' E 139°42'0 0.0
2018-Jul-13 22:16N 35°29' E 139°42'0 0.0
2018-Jul-13 21:58N 35°29' E 139°42'0 0.0
2018-Jul-13 21:28N 35°29' E 139°42'0 0.0
2018-Jul-13 20:52N 35°29' E 139°42'0 0.0
2018-Jul-13 20:28N 35°29' E 139°42'0 0.0
2018-Jul-13 19:22N 35°29' E 139°42'0 0.0
2018-Jul-13 18:34N 35°29' E 139°42'0 0.0
2018-Jul-13 18:25N 35°29' E 139°42'0 0.0
2018-Jul-13 17:55N 35°29' E 139°42'0 0.0
2018-Jul-13 17:28N 35°29' E 139°42'0 0.0
2018-Jul-13 16:49N 35°29' E 139°42'0 0.0
2018-Jul-13 16:25N 35°29' E 139°42'0 0.0
2018-Jul-13 15:58N 35°29' E 139°42'0 0.0
2018-Jul-13 14:25N 35°29' E 139°42'0 0.0
2018-Jul-13 12:28N 35°29' E 139°42'0 0.0
2018-Jul-13 11:55N 35°29' E 139°42'0 0.0
2018-Jul-13 11:25N 35°29' E 139°42'0 0.0
2018-Jul-13 10:10N 35°29' E 139°42'0 0.0
2018-Jul-13 09:55N 35°29' E 139°42'0 0.0
2018-Jul-13 09:28N 35°29' E 139°42'0 0.0
2018-Jul-13 08:31N 35°29' E 139°42'0 0.0
2018-Jul-13 08:16N 35°29' E 139°42'0 0.0
2018-Jul-13 07:55N 35°29' E 139°42'0 0.0
2018-Jul-13 07:28N 35°29' E 139°42'0 0.0
2018-Jul-13 06:52N 35°29' E 139°42'0 0.0
2018-Jul-13 06:22N 35°29' E 139°42'0 0.0
2018-Jul-13 05:55N 35°29' E 139°42'2 4.3
2018-Jul-13 05:30N 35°30' E 139°44'1 0.2
2018-Jul-12 21:52N 35°30' E 139°45'3 2.3
2018-Jul-12 20:34N 35°29' E 139°42'0 0.0
2018-Jul-12 20:19N 35°29' E 139°42'0 0.0
2018-Jul-12 19:58N 35°29' E 139°42'0 0.0
2018-Jul-12 18:16N 35°29' E 139°42'0 0.0
2018-Jul-12 17:55N 35°29' E 139°42'0 0.0
2018-Jul-12 17:28N 35°29' E 139°42'0 0.0
2018-Jul-12 16:55N 35°29' E 139°42'0 0.0
2018-Jul-12 16:28N 35°29' E 139°42'0 0.0
2018-Jul-12 13:52N 35°29' E 139°42'0 0.0
2018-Jul-12 13:31N 35°29' E 139°42'0 0.0
2018-Jul-12 12:19N 35°29' E 139°42'0 0.0
2018-Jul-12 11:22N 35°29' E 139°42'0 0.0
2018-Jul-12 10:46N 35°29' E 139°42'0 0.0
2018-Jul-12 10:22N 35°29' E 139°42'0 0.0
2018-Jul-12 09:58N 35°29' E 139°42'0 0.0
2018-Jul-12 09:31N 35°29' E 139°42'0 0.0
2018-Jul-12 08:52N 35°29' E 139°42'0 0.0
2018-Jul-12 08:13N 35°29' E 139°42'0 0.0
2018-Jul-12 07:52N 35°29' E 139°42'0 0.0
2018-Jul-12 07:28N 35°29' E 139°42'0 0.0
2018-Jul-12 06:58N 35°29' E 139°42'0 0.0
2018-Jul-12 06:28N 35°29' E 139°42'0 0.0
2018-Jul-12 05:58N 35°29' E 139°42'0 0.0
2018-Jul-12 05:28N 35°29' E 139°42'0 0.0
2018-Jul-12 05:01N 35°29' E 139°42'0 0.0
2018-Jul-12 04:28N 35°29' E 139°42'0 0.0
2018-Jul-12 03:55N 35°29' E 139°42'0 0.0
2018-Jul-12 03:28N 35°29' E 139°42'0 0.2
2018-Jul-12 03:00N 35°29' E 139°42'3 0.5
2018-Jul-11 21:18N 35°30' E 139°45'3 0.9
2018-Jul-11 18:10N 35°29' E 139°41'0 0.0
2018-Jul-11 15:16N 35°29' E 139°41'0 0.0
2018-Jul-11 11:58N 35°29' E 139°41'0 0.0
2018-Jul-11 09:58N 35°29' E 139°41'0 0.0
2018-Jul-11 09:22N 35°29' E 139°41'0 0.0
2018-Jul-11 08:16N 35°29' E 139°41'1 2.5
2018-Jul-11 08:00N 35°29' E 139°42'2 0.7
2018-Jul-11 05:31N 35°30' E 139°44'0 2.5
2018-Jul-11 05:28N 35°30' E 139°44'0 0.2
2018-Jul-11 04:26N 35°30' E 139°44'1 0.1
2018-Jul-10 22:49N 35°30' E 139°45'3 6.0
2018-Jul-10 22:21N 35°29' E 139°42'0 0.0
2018-Jul-10 22:00N 35°29' E 139°42'0 0.0
2018-Jul-10 21:24N 35°29' E 139°42'0 0.0
2018-Jul-10 20:48N 35°29' E 139°42'0 0.0
2018-Jul-10 20:09N 35°29' E 139°42'0 0.0
2018-Jul-10 20:00N 35°29' E 139°42'0 0.0
2018-Jul-10 17:12N 35°29' E 139°42'0 0.0
2018-Jul-10 17:00N 35°29' E 139°42'0 0.0
2018-Jul-10 16:30N 35°29' E 139°42'0 0.0
2018-Jul-10 16:00N 35°29' E 139°42'0 0.0
2018-Jul-10 15:27N 35°29' E 139°42'0 0.0
2018-Jul-10 14:15N 35°29' E 139°42'0 0.0
2018-Jul-10 13:42N 35°29' E 139°42'0 0.0
2018-Jul-10 12:03N 35°29' E 139°42'0 0.0
2018-Jul-10 11:51N 35°29' E 139°42'0 0.0
2018-Jul-10 10:54N 35°29' E 139°42'0 0.0
2018-Jul-10 10:30N 35°29' E 139°42'0 0.0
2018-Jul-10 09:51N 35°29' E 139°42'0 0.0
2018-Jul-10 09:24N 35°29' E 139°42'0 0.0
2018-Jul-10 08:57N 35°29' E 139°42'0 0.0
2018-Jul-10 08:27N 35°29' E 139°42'0 0.0
2018-Jul-10 07:39N 35°29' E 139°42'0 0.0
2018-Jul-10 07:27N 35°29' E 139°42'0 0.0
2018-Jul-10 06:30N 35°29' E 139°42'0 0.0
2018-Jul-10 06:00N 35°29' E 139°42'0 0.0
2018-Jul-10 05:30N 35°29' E 139°42'0 0.0
2018-Jul-10 05:00N 35°29' E 139°42'2 3.0
2018-Jul-10 04:27N 35°30' E 139°43'1 0.4
2018-Jul-10 02:35N 35°30' E 139°44'0 0.2
2018-Jul-10 02:16N 35°30' E 139°44'0 0.1
2018-Jul-09 20:35N 35°30' E 139°44'111.8
2018-Jul-09 20:30N 35°29' E 139°43'1 0.5
2018-Jul-09 18:21N 35°29' E 139°42'0 0.0
2018-Jul-09 13:45N 35°29' E 139°42'0 0.0
2018-Jul-09 06:21N 35°29' E 139°42'0 0.0
2018-Jul-09 05:51N 35°29' E 139°42'0 0.1
2018-Jul-09 05:24N 35°29' E 139°42'1 0.2
2018-Jul-08 21:28N 35°30' E 139°43'  
Track history (hours):
 
Tides and Currents Weather Stations Pressure Air Temp Water Temp Dewpoint Dewpoint Depression Visibility Wind Speed Wind Dir Waves Ship Positions

Kokimaru

Last reported at 2018-Jul-18 21:22 UTC. Time now 2018-Jul-19 19:21 UTC.
Position N 35°30' E 139°45'.

Length 49 m.

Type: Tanker. MMSI: 431004691.

Date/timePositionNaut miles runAvg speedWind from/ knotsBaromVisibWave heightAir tempDewpointWater temp
2018-Jul-18 21:22N 35°30' E 139°45'3 5.1
2018-Jul-18 20:45N 35°29' E 139°42'0 0.0
2018-Jul-18 20:30N 35°29' E 139°42'0 0.0
2018-Jul-18 19:45N 35°29' E 139°42'0 0.0
2018-Jul-18 19:27N 35°29' E 139°42'0 0.0
2018-Jul-18 09:15N 35°29' E 139°42'0 0.0
2018-Jul-18 08:51N 35°29' E 139°42'0 0.0
2018-Jul-18 07:51N 35°29' E 139°42'0 0.0
2018-Jul-18 07:30N 35°29' E 139°42'0 0.0
2018-Jul-18 07:00N 35°29' E 139°42'0 0.0
2018-Jul-18 05:02N 35°29' E 139°42'0 2.0
2018-Jul-18 05:00N 35°29' E 139°42'3 1.1
2018-Jul-18 02:28N 35°30' E 139°45'0 0.0
2018-Jul-17 21:17N 35°30' E 139°44'3 4.7
2018-Jul-17 20:44N 35°29' E 139°42'0 0.0
2018-Jul-17 18:29N 35°29' E 139°42'0 0.0
2018-Jul-17 17:59N 35°29' E 139°42'0 0.0
2018-Jul-17 17:23N 35°29' E 139°42'0 0.0
2018-Jul-17 16:17N 35°29' E 139°42'0 0.0
2018-Jul-17 15:47N 35°29' E 139°42'0 0.0
2018-Jul-17 15:23N 35°29' E 139°42'0 0.0
2018-Jul-17 14:50N 35°29' E 139°42'0 0.0
2018-Jul-17 13:41N 35°29' E 139°42'0 0.0
2018-Jul-17 13:14N 35°29' E 139°42'0 0.0
2018-Jul-17 12:50N 35°29' E 139°42'0 0.0
2018-Jul-17 11:17N 35°29' E 139°42'0 0.0
2018-Jul-17 10:56N 35°29' E 139°42'0 0.0
2018-Jul-17 10:26N 35°29' E 139°42'0 0.0
2018-Jul-17 09:23N 35°29' E 139°42'0 0.0
2018-Jul-17 08:59N 35°29' E 139°42'0 0.0
2018-Jul-17 08:26N 35°29' E 139°42'0 0.0
2018-Jul-17 07:50N 35°29' E 139°42'0 0.0
2018-Jul-17 07:20N 35°29' E 139°42'0 0.0
2018-Jul-17 06:56N 35°29' E 139°42'0 0.0
2018-Jul-17 06:29N 35°29' E 139°42'0 0.0
2018-Jul-17 04:56N 35°29' E 139°42'0 0.0
2018-Jul-17 03:50N 35°29' E 139°42'0 0.0
2018-Jul-17 03:29N 35°29' E 139°42'4 5.9
2018-Jul-17 02:49N 35°31' E 139°46'0 0.1
2018-Jul-16 23:21N 35°31' E 139°46'2 4.5
2018-Jul-16 22:54N 35°30' E 139°44'2 3.6
2018-Jul-16 22:20N 35°29' E 139°42'0 0.0
2018-Jul-16 12:44N 35°29' E 139°42'  
2018-Jul-14 07:27N 35°29' E 139°42'2 0.3
2018-Jul-14 00:20N 35°30' E 139°44'2 2.1
2018-Jul-13 23:10N 35°29' E 139°42'0 0.0
2018-Jul-13 22:16N 35°29' E 139°42'0 0.0
2018-Jul-13 21:58N 35°29' E 139°42'0 0.0
2018-Jul-13 21:28N 35°29' E 139°42'0 0.0
2018-Jul-13 20:52N 35°29' E 139°42'0 0.0
2018-Jul-13 20:28N 35°29' E 139°42'0 0.0
2018-Jul-13 19:22N 35°29' E 139°42'0 0.0
2018-Jul-13 18:34N 35°29' E 139°42'0 0.0
2018-Jul-13 18:25N 35°29' E 139°42'0 0.0
2018-Jul-13 17:55N 35°29' E 139°42'0 0.0
2018-Jul-13 17:28N 35°29' E 139°42'0 0.0
2018-Jul-13 16:49N 35°29' E 139°42'0 0.0
2018-Jul-13 16:25N 35°29' E 139°42'0 0.0
2018-Jul-13 15:58N 35°29' E 139°42'0 0.0
2018-Jul-13 14:25N 35°29' E 139°42'0 0.0
2018-Jul-13 12:28N 35°29' E 139°42'0 0.0
2018-Jul-13 11:55N 35°29' E 139°42'0 0.0
2018-Jul-13 11:25N 35°29' E 139°42'0 0.0
2018-Jul-13 10:10N 35°29' E 139°42'0 0.0
2018-Jul-13 09:55N 35°29' E 139°42'0 0.0
2018-Jul-13 09:28N 35°29' E 139°42'0 0.0
2018-Jul-13 08:31N 35°29' E 139°42'0 0.0
2018-Jul-13 08:16N 35°29' E 139°42'0 0.0
2018-Jul-13 07:55N 35°29' E 139°42'0 0.0
2018-Jul-13 07:28N 35°29' E 139°42'0 0.0
2018-Jul-13 06:52N 35°29' E 139°42'0 0.0
2018-Jul-13 06:22N 35°29' E 139°42'0 0.0
2018-Jul-13 05:55N 35°29' E 139°42'2 4.3
2018-Jul-13 05:30N 35°30' E 139°44'1 0.2
2018-Jul-12 21:52N 35°30' E 139°45'3 2.3
2018-Jul-12 20:34N 35°29' E 139°42'0 0.0
2018-Jul-12 20:19N 35°29' E 139°42'0 0.0
2018-Jul-12 19:58N 35°29' E 139°42'0 0.0
2018-Jul-12 18:16N 35°29' E 139°42'0 0.0
2018-Jul-12 17:55N 35°29' E 139°42'0 0.0
2018-Jul-12 17:28N 35°29' E 139°42'0 0.0
2018-Jul-12 16:55N 35°29' E 139°42'0 0.0
2018-Jul-12 16:28N 35°29' E 139°42'0 0.0
2018-Jul-12 13:52N 35°29' E 139°42'0 0.0
2018-Jul-12 13:31N 35°29' E 139°42'0 0.0
2018-Jul-12 12:19N 35°29' E 139°42'0 0.0
2018-Jul-12 11:22N 35°29' E 139°42'0 0.0
2018-Jul-12 10:46N 35°29' E 139°42'0 0.0
2018-Jul-12 10:22N 35°29' E 139°42'0 0.0
2018-Jul-12 09:58N 35°29' E 139°42'0 0.0
2018-Jul-12 09:31N 35°29' E 139°42'0 0.0
2018-Jul-12 08:52N 35°29' E 139°42'0 0.0
2018-Jul-12 08:13N 35°29' E 139°42'0 0.0
2018-Jul-12 07:52N 35°29' E 139°42'0 0.0
2018-Jul-12 07:28N 35°29' E 139°42'0 0.0
2018-Jul-12 06:58N 35°29' E 139°42'0 0.0
2018-Jul-12 06:28N 35°29' E 139°42'0 0.0
2018-Jul-12 05:58N 35°29' E 139°42'0 0.0
2018-Jul-12 05:28N 35°29' E 139°42'0 0.0
2018-Jul-12 05:01N 35°29' E 139°42'0 0.0
2018-Jul-12 04:28N 35°29' E 139°42'0 0.0
2018-Jul-12 03:55N 35°29' E 139°42'0 0.0
2018-Jul-12 03:28N 35°29' E 139°42'0 0.2
2018-Jul-12 03:00N 35°29' E 139°42'3 0.5
2018-Jul-11 21:18N 35°30' E 139°45'3 0.9
2018-Jul-11 18:10N 35°29' E 139°41'0 0.0
2018-Jul-11 15:16N 35°29' E 139°41'0 0.0
2018-Jul-11 11:58N 35°29' E 139°41'0 0.0
2018-Jul-11 09:58N 35°29' E 139°41'0 0.0
2018-Jul-11 09:22N 35°29' E 139°41'0 0.0
2018-Jul-11 08:16N 35°29' E 139°41'1 2.5
2018-Jul-11 08:00N 35°29' E 139°42'2 0.7
2018-Jul-11 05:31N 35°30' E 139°44'0 2.5
2018-Jul-11 05:28N 35°30' E 139°44'0 0.2
2018-Jul-11 04:26N 35°30' E 139°44'1 0.1
2018-Jul-10 22:49N 35°30' E 139°45'3 6.0
2018-Jul-10 22:21N 35°29' E 139°42'0 0.0
2018-Jul-10 22:00N 35°29' E 139°42'0 0.0
2018-Jul-10 21:24N 35°29' E 139°42'0 0.0
2018-Jul-10 20:48N 35°29' E 139°42'0 0.0
2018-Jul-10 20:09N 35°29' E 139°42'0 0.0
2018-Jul-10 20:00N 35°29' E 139°42'0 0.0
2018-Jul-10 17:12N 35°29' E 139°42'0 0.0
2018-Jul-10 17:00N 35°29' E 139°42'0 0.0
2018-Jul-10 16:30N 35°29' E 139°42'0 0.0
2018-Jul-10 16:00N 35°29' E 139°42'0 0.0
2018-Jul-10 15:27N 35°29' E 139°42'0 0.0
2018-Jul-10 14:15N 35°29' E 139°42'0 0.0
2018-Jul-10 13:42N 35°29' E 139°42'0 0.0
2018-Jul-10 12:03N 35°29' E 139°42'0 0.0
2018-Jul-10 11:51N 35°29' E 139°42'0 0.0
2018-Jul-10 10:54N 35°29' E 139°42'0 0.0
2018-Jul-10 10:30N 35°29' E 139°42'0 0.0
2018-Jul-10 09:51N 35°29' E 139°42'0 0.0
2018-Jul-10 09:24N 35°29' E 139°42'0 0.0
2018-Jul-10 08:57N 35°29' E 139°42'0 0.0
2018-Jul-10 08:27N 35°29' E 139°42'0 0.0
2018-Jul-10 07:39N 35°29' E 139°42'0 0.0
2018-Jul-10 07:27N 35°29' E 139°42'0 0.0
2018-Jul-10 06:30N 35°29' E 139°42'0 0.0
2018-Jul-10 06:00N 35°29' E 139°42'0 0.0
2018-Jul-10 05:30N 35°29' E 139°42'0 0.0
2018-Jul-10 05:00N 35°29' E 139°42'2 3.0
2018-Jul-10 04:27N 35°30' E 139°43'1 0.4
2018-Jul-10 02:35N 35°30' E 139°44'0 0.2
2018-Jul-10 02:16N 35°30' E 139°44'0 0.1
2018-Jul-09 20:35N 35°30' E 139°44'111.8
2018-Jul-09 20:30N 35°29' E 139°43'1 0.5
2018-Jul-09 18:21N 35°29' E 139°42'0 0.0
2018-Jul-09 13:45N 35°29' E 139°42'0 0.0
2018-Jul-09 06:21N 35°29' E 139°42'0 0.0
2018-Jul-09 05:51N 35°29' E 139°42'0 0.1
2018-Jul-09 05:24N 35°29' E 139°42'1 0.2
2018-Jul-08 21:28N 35°30' E 139°43'  

Dump ship's entire track history